Bloomington, IN

11:42 AM EDT on May 29, 2015 (GMT -0400)
Indianapolis International | | Change Station
CLOSE
Current Station
Airport
Location: Indianapolis,
Elevation: 807 ft
Nearby Weather Stations

Elev 807 ft 39.71 °N, 86.30 °W | Updated 48 minutes ago

Partly Cloudy
Partly Cloudy
76 °F
Feels Like 76 °F
N
8
Wind Variable Wind from SSE

Today
High -- | Low -- °F
--% Chance of Precip.
Yesterday
High -- | Low -- °F
Precip. -- in
6:23 AM 9:03 PM
Waxing Gibbous, 84% visible
Pressure 30.09 in
Visibility 10.0 miles
Clouds Few 3300 ft
Few 9000 ft
Mostly Cloudy 25000 ft
Dew Point 66 °F
Humidity 71%
Rainfall 0.00 in
Snow Depth Not available.
UV 4 out of 12
Pollen 7.30 out of 12
Air Quality Not available.
Flu Activity Sporadic
METAR KIND 291454Z 16007KT 10SM FEW033 FEW090 BKN250 24/19 A3011 RMK AO2 SLP190 TCU DSNT W ACC S AND DSNT SE T02440189 50006

More Conditions Fewer Conditions

Pressure 30.09 in
Visibility 10.0 miles
Clouds Few 3300 ft
Few 9000 ft
Mostly Cloudy 25000 ft
Dew Point 66 °F
Humidity 71%
Rainfall 0.00 in
Snow Depth Not available.
UV 4 out of 12
Pollen 7.30 out of 12
Air Quality Not available.
Flu Activity Sporadic
METAR KIND 291454Z 16007KT 10SM FEW033 FEW090 BKN250 24/19 A3011 RMK AO2 SLP190 TCU DSNT W ACC S AND DSNT SE T02440189 50006

More Conditions Fewer Conditions

10-Day Weather Forecast

Almanac

Astronomy

May. 29, 2015 Rise Set
Actual Time
Civil Twilight
Nautical Twilight
Astronomical Twilight
Moon
Length of Visible Light
Length of Day
Tomorrow will be .
, % of the Moon is Illuminated

Today's Extremes

State Highs State Lows

Community

WunderPhotos

Upload Photos

1,825,294 photos uploaded!

WunderBlogs® & News

Nearby

Air Quality

  Air Quality AQ Index Pollutant
Not available.

Snow Depth

Station Depth Elevation

Earthquake Activity

City Distance Mag. Time & Date
Minimum magnitude displayed is 2.5.

Coastal Water Temperatures

Place Temperature

Stations

Nearby Weather Stations

Station Location Temp. Windchill Dew Point Humidity Wind Precip. Elev Updated Type